createdAt,value
2018-03-03T00:01:42.600Z,49.22
2018-03-03T00:04:12.260Z,50.03
2018-03-03T00:06:41.095Z,49.15
2018-03-03T00:09:09.934Z,52.67
2018-03-03T00:11:38.789Z,51.67
2018-03-03T00:14:08.420Z,51.60
2018-03-03T00:16:37.287Z,48.97
2018-03-03T00:19:06.125Z,53.92
2018-03-03T00:21:46.674Z,49.88
2018-03-03T00:24:15.527Z,54.65
2018-03-03T00:26:45.092Z,53.10
2018-03-03T00:29:13.974Z,52.62
2018-03-03T00:31:42.835Z,51.75
2018-03-03T00:34:11.672Z,51.92
2018-03-03T00:36:40.574Z,53.30
2018-03-03T00:39:09.412Z,52.22
2018-03-03T00:41:38.281Z,48.80
2018-03-03T00:44:07.066Z,54.13
2018-03-03T00:46:35.911Z,52.05
2018-03-03T00:49:04.767Z,50.70
2018-03-03T00:51:33.610Z,49.75
2018-03-03T00:54:03.260Z,50.28
2018-03-03T00:56:32.101Z,52.72
2018-03-03T00:59:00.981Z,52.35
2018-03-03T01:01:29.873Z,49.05
2018-03-03T01:03:58.701Z,50.58
2018-03-03T01:06:27.267Z,49.50
2018-03-03T01:08:56.836Z,50.08
2018-03-03T01:11:25.667Z,51.85
2018-03-03T01:13:54.524Z,54.55
2018-03-03T01:16:23.375Z,51.72
2018-03-03T01:18:52.224Z,51.47
2018-03-03T01:21:21.026Z,52.88
2018-03-03T01:23:50.637Z,53.38
2018-03-03T01:26:22.301Z,55.92
2018-03-03T01:28:51.127Z,54.05
2018-03-03T01:31:19.966Z,52.08
2018-03-03T01:33:48.764Z,52.28
2018-03-03T01:36:17.618Z,51.63
2018-03-03T01:38:46.463Z,52.53
2018-03-03T01:41:15.270Z,51.45
2018-03-03T01:43:44.122Z,49.72
2018-03-03T01:46:12.958Z,51.30
2018-03-03T01:48:41.791Z,53.92
2018-03-03T01:51:22.487Z,49.83
2018-03-03T01:53:51.311Z,50.15
2018-03-03T01:56:21.037Z,51.85
2018-03-03T01:58:49.866Z,52.62
2018-03-03T02:01:18.689Z,53.75
2018-03-03T02:03:47.506Z,51.60
2018-03-03T02:06:16.334Z,49.05
2018-03-03T02:08:45.171Z,50.58
2018-03-03T02:11:14.010Z,49.72
2018-03-03T02:13:42.862Z,50.00
2018-03-03T02:16:11.940Z,46.90
2018-03-03T02:18:40.797Z,49.17
2018-03-03T02:21:09.671Z,49.38
2018-03-03T02:23:38.491Z,49.15
2018-03-03T02:26:07.364Z,49.35
2018-03-03T02:28:36.209Z,49.20
2018-03-03T02:31:05.821Z,49.47
2018-03-03T02:33:34.675Z,51.13
2018-03-03T02:36:03.463Z,49.35
2018-03-03T02:38:32.295Z,50.67
2018-03-03T02:41:01.162Z,50.40
2018-03-03T02:43:30.018Z,50.78
2018-03-03T02:45:58.858Z,50.15
2018-03-03T02:48:28.451Z,50.40
2018-03-03T02:50:57.295Z,50.53
2018-03-03T02:53:26.085Z,49.97
2018-03-03T02:55:54.910Z,50.08
2018-03-03T02:58:23.768Z,48.87
2018-03-03T03:00:53.377Z,49.72
2018-03-03T03:03:22.214Z,51.53
2018-03-03T03:05:51.790Z,52.45
2018-03-03T03:08:20.661Z,49.55
2018-03-03T03:10:49.535Z,51.92
2018-03-03T03:13:18.339Z,50.80
2018-03-03T03:15:47.244Z,50.92
2018-03-03T03:18:16.038Z,52.45
2018-03-03T03:20:44.902Z,51.22
2018-03-03T03:23:14.802Z,49.55
2018-03-03T03:25:43.654Z,51.97
2018-03-03T03:28:12.486Z,51.88
2018-03-03T03:30:41.279Z,53.75
2018-03-03T03:33:10.126Z,53.78
2018-03-03T03:35:39.766Z,50.00
2018-03-03T03:38:08.636Z,51.55
2018-03-03T03:40:37.474Z,53.40
2018-03-03T03:43:06.266Z,51.35
2018-03-03T03:45:35.110Z,55.15
2018-03-03T03:48:04.725Z,54.55
2018-03-03T03:50:33.517Z,55.38
2018-03-03T03:53:02.369Z,53.35
2018-03-03T03:55:31.193Z,56.60
2018-03-03T03:58:00.022Z,52.08
2018-03-03T04:00:28.883Z,52.25
2018-03-03T04:02:57.702Z,51.03
2018-03-03T04:05:26.537Z,50.90
2018-03-03T04:07:55.370Z,51.03
2018-03-03T04:10:24.170Z,47.58
2018-03-03T04:12:53.047Z,53.00
2018-03-03T04:15:25.501Z,52.92
2018-03-03T04:17:54.415Z,52.62
2018-03-03T04:20:23.222Z,51.13
2018-03-03T04:22:52.067Z,50.80
2018-03-03T04:25:20.748Z,53.25
2018-03-03T04:27:49.472Z,51.05
2018-03-03T04:30:18.338Z,50.08
2018-03-03T04:32:47.121Z,52.38
2018-03-03T04:35:15.818Z,51.42
2018-03-03T04:37:44.470Z,51.95
2018-03-03T04:40:13.302Z,50.88
2018-03-03T04:42:42.170Z,51.45
2018-03-03T04:45:10.829Z,50.17
2018-03-03T04:47:40.373Z,51.55
2018-03-03T04:50:09.061Z,51.97
2018-03-03T04:52:37.761Z,51.65
2018-03-03T04:55:06.471Z,48.85
2018-03-03T04:57:35.893Z,52.17
2018-03-03T05:00:10.502Z,51.78
2018-03-03T05:02:53.855Z,48.35
2018-03-03T05:05:24.430Z,54.30
2018-03-03T05:07:55.114Z,52.13
2018-03-03T05:10:26.282Z,50.72
2018-03-03T05:13:00.562Z,51.92
2018-03-03T05:15:34.874Z,51.55
2018-03-03T05:21:25.046Z,55.03
2018-03-03T05:23:59.343Z,51.20
2018-03-03T05:26:45.707Z,53.42
2018-03-03T05:29:20.620Z,51.92
2018-03-03T05:35:16.094Z,51.70
2018-03-03T05:37:51.119Z,53.60
2018-03-03T05:40:32.217Z,49.65
2018-03-03T05:43:06.443Z,51.75
2018-03-03T05:45:40.689Z,49.60
2018-03-03T05:48:14.890Z,52.25
2018-03-03T05:50:49.202Z,52.60
2018-03-03T05:56:41.588Z,55.45
2018-03-03T05:59:14.085Z,51.37
2018-03-03T06:01:43.810Z,50.33
2018-03-03T06:04:15.418Z,49.58
2018-03-03T06:06:49.596Z,52.92
2018-03-03T06:09:18.200Z,49.67
2018-03-03T06:11:47.635Z,51.10
2018-03-03T06:14:16.271Z,51.40
2018-03-03T06:16:53.657Z,50.78
2018-03-03T06:19:22.448Z,53.55
2018-03-03T06:21:51.225Z,53.20
2018-03-03T06:24:20.015Z,51.15
2018-03-03T06:26:48.771Z,51.97
2018-03-03T06:29:17.575Z,49.78
2018-03-03T06:31:46.407Z,51.53
2018-03-03T06:34:15.964Z,45.05
2018-03-03T06:36:45.374Z,47.75
2018-03-03T06:39:14.893Z,54.30
2018-03-03T06:41:43.676Z,52.13
2018-03-03T06:44:12.491Z,50.10
2018-03-03T06:46:41.248Z,51.37
2018-03-03T06:49:10.038Z,51.72
2018-03-03T06:51:38.865Z,51.25
2018-03-03T06:54:07.676Z,50.92
2018-03-03T06:56:36.535Z,49.63
2018-03-03T06:59:05.347Z,48.60
2018-03-03T07:01:35.114Z,48.72
2018-03-03T07:04:03.954Z,50.20
2018-03-03T07:06:32.830Z,48.92
2018-03-03T07:09:01.721Z,50.05
2018-03-03T07:11:30.615Z,45.38
2018-03-03T07:13:59.320Z,46.72
2018-03-03T07:16:28.016Z,50.88
2018-03-03T07:18:56.900Z,47.62
2018-03-03T07:21:25.751Z,47.83
2018-03-03T07:23:54.588Z,47.75
2018-03-03T07:26:23.477Z,45.85
2018-03-03T07:28:52.289Z,47.38
2018-03-03T07:31:21.924Z,47.72
2018-03-03T07:33:50.797Z,46.05
2018-03-03T07:36:20.462Z,51.15
2018-03-03T07:38:49.328Z,48.10
2018-03-03T07:41:18.146Z,47.58
2018-03-03T07:43:47.041Z,48.33
2018-03-03T07:46:15.900Z,49.05
2018-03-03T07:48:44.763Z,49.72
2018-03-03T07:51:15.482Z,51.88
2018-03-03T07:53:44.330Z,50.12
2018-03-03T07:56:13.191Z,48.95
2018-03-03T07:58:49.409Z,47.97
2018-03-03T08:01:18.271Z,49.10
2018-03-03T08:03:47.133Z,48.20
2018-03-03T08:06:16.765Z,51.05
2018-03-03T08:08:45.679Z,47.53
2018-03-03T08:11:14.503Z,52.83
2018-03-03T08:13:43.381Z,50.05
2018-03-03T08:16:12.242Z,50.72
2018-03-03T08:18:41.077Z,47.62
2018-03-03T08:21:09.925Z,49.17
2018-03-03T08:23:38.777Z,48.50
2018-03-03T08:26:07.632Z,49.83
2018-03-03T08:28:36.517Z,48.10
2018-03-03T08:31:05.404Z,50.78
2018-03-03T08:33:34.280Z,47.28
2018-03-03T08:36:03.925Z,46.90
2018-03-03T08:38:32.784Z,48.42
2018-03-03T08:41:01.664Z,47.83
2018-03-03T08:43:31.286Z,47.92
2018-03-03T08:46:00.946Z,48.70
2018-03-03T08:48:29.818Z,47.15
2018-03-03T08:50:58.707Z,50.88
2018-03-03T08:53:27.621Z,47.80
2018-03-03T08:55:56.317Z,47.90
2018-03-03T08:58:25.030Z,48.80
2018-03-03T09:00:53.568Z,48.67
2018-03-03T09:03:23.164Z,47.87
2018-03-03T09:05:52.196Z,47.58
2018-03-03T09:08:21.113Z,48.53
2018-03-03T09:10:49.974Z,51.40
2018-03-03T09:13:18.563Z,48.83
2018-03-03T09:15:48.438Z,48.08
2018-03-03T09:18:17.177Z,47.77
2018-03-03T09:20:45.724Z,48.40
2018-03-03T09:23:14.612Z,51.17
2018-03-03T09:25:43.459Z,48.13
2018-03-03T09:28:12.827Z,46.97
2018-03-03T09:30:41.464Z,49.73
2018-03-03T09:33:10.051Z,46.97
2018-03-03T09:35:38.627Z,56.57
2018-03-03T09:38:07.196Z,50.30
2018-03-03T09:40:36.540Z,51.33
2018-03-03T09:43:05.135Z,49.03
2018-03-03T09:45:33.779Z,47.27
2018-03-03T09:48:02.331Z,47.90
2018-03-03T09:50:30.940Z,49.00
2018-03-03T09:52:59.632Z,48.40
2018-03-03T09:55:28.200Z,51.37
2018-03-03T09:57:56.785Z,50.47
2018-03-03T10:00:25.201Z,53.83
2018-03-03T10:02:53.615Z,61.57
2018-03-03T10:05:22.207Z,56.47
2018-03-03T10:07:50.806Z,55.17
2018-03-03T10:10:19.455Z,59.23
2018-03-03T10:12:48.034Z,53.57
2018-03-03T10:15:16.936Z,52.37
2018-03-03T10:17:45.564Z,51.67
2018-03-03T10:20:14.135Z,50.57
2018-03-03T10:22:42.680Z,52.73
2018-03-03T10:25:11.236Z,51.33
2018-03-03T10:27:39.894Z,49.57
2018-03-03T10:30:08.504Z,48.10
2018-03-03T10:32:37.175Z,50.97
2018-03-03T10:35:06.274Z,51.03
2018-03-03T10:37:34.889Z,49.33
2018-03-03T10:40:03.565Z,51.43
2018-03-03T10:42:32.216Z,50.93
2018-03-03T10:45:06.179Z,49.97
2018-03-03T10:47:36.793Z,50.97
2018-03-03T10:50:05.578Z,48.40
2018-03-03T10:52:34.255Z,49.93
2018-03-03T10:55:06.456Z,48.73
2018-03-03T10:57:36.596Z,51.83
2018-03-03T11:00:06.096Z,52.27
2018-03-03T11:02:35.764Z,51.20
2018-03-03T11:05:06.230Z,47.57
2018-03-03T11:07:35.055Z,48.87
2018-03-03T11:10:10.913Z,49.67
2018-03-03T11:12:45.181Z,51.27
2018-03-03T11:15:19.786Z,52.70
2018-03-03T11:17:48.351Z,47.50
2018-03-03T11:20:20.468Z,45.20
2018-03-03T11:22:49.063Z,47.63
2018-03-03T11:25:17.687Z,49.10
2018-03-03T11:27:46.355Z,46.63
2018-03-03T11:30:18.568Z,44.63
2018-03-03T11:32:47.286Z,52.17
2018-03-03T11:35:15.866Z,48.43
2018-03-03T11:37:44.444Z,49.20
2018-03-03T11:40:13.061Z,49.87
2018-03-03T11:42:41.905Z,45.30
2018-03-03T11:45:11.578Z,49.77
2018-03-03T11:47:42.292Z,47.37
2018-03-03T11:50:11.000Z,49.73
2018-03-03T11:52:39.611Z,48.37
2018-03-03T11:55:08.185Z,48.23
2018-03-03T11:57:37.629Z,51.77
2018-03-03T12:00:06.314Z,44.43
2018-03-03T12:02:34.873Z,48.07
2018-03-03T12:05:04.344Z,48.53
2018-03-03T12:07:33.062Z,46.37
2018-03-03T12:10:04.753Z,46.07
2018-03-03T12:12:35.239Z,47.63
2018-03-03T12:15:03.849Z,47.93
2018-03-03T12:17:32.521Z,47.67
2018-03-03T12:20:04.552Z,45.53
2018-03-03T12:22:34.277Z,143.50
2018-03-03T12:25:02.789Z,100.40
2018-03-03T12:27:31.412Z,55.30
2018-03-03T12:29:59.966Z,52.63
2018-03-03T12:32:29.337Z,48.37
2018-03-03T12:34:57.929Z,49.70
2018-03-03T12:37:26.521Z,49.43
2018-03-03T12:39:55.089Z,48.70
2018-03-03T12:42:23.774Z,45.97
2018-03-03T12:44:52.452Z,47.17
2018-03-03T12:47:21.033Z,45.10
2018-03-03T12:49:49.549Z,49.03
2018-03-03T12:52:18.148Z,49.97
2018-03-03T12:54:51.274Z,44.93
2018-03-03T12:57:19.828Z,50.33
2018-03-03T12:59:48.407Z,50.17
2018-03-03T13:02:17.137Z,46.33
2018-03-03T13:04:45.762Z,46.73
2018-03-03T13:07:14.332Z,49.07
2018-03-03T13:09:42.936Z,45.73
2018-03-03T13:12:11.739Z,51.90
2018-03-03T13:14:41.129Z,44.93
2018-03-03T13:17:11.728Z,47.70
2018-03-03T13:19:40.529Z,46.80
2018-03-03T13:22:13.792Z,46.67
2018-03-03T13:24:44.683Z,46.83
2018-03-03T13:27:13.747Z,45.00
2018-03-03T13:29:42.719Z,46.83
2018-03-03T13:32:21.123Z,41.87
2018-03-03T13:34:50.125Z,47.40
2018-03-03T13:37:19.828Z,49.43
2018-03-03T13:39:49.246Z,47.73
2018-03-03T13:42:29.937Z,50.70
2018-03-03T13:44:58.566Z,49.33
2018-03-03T13:47:27.145Z,51.57
2018-03-03T13:49:56.515Z,43.33
2018-03-03T13:52:25.158Z,50.97
2018-03-03T13:54:53.838Z,49.00
2018-03-03T13:57:23.526Z,50.33
2018-03-03T13:59:52.079Z,51.87
2018-03-03T14:02:21.368Z,47.67
2018-03-03T14:04:49.925Z,48.97
2018-03-03T14:07:18.657Z,49.73
2018-03-03T14:09:48.039Z,53.33
2018-03-03T14:12:16.643Z,44.90
2018-03-03T14:14:49.594Z,46.80
2018-03-03T14:17:18.254Z,44.70
2018-03-03T14:19:46.853Z,45.40
2018-03-03T14:22:15.482Z,46.20
2018-03-03T14:24:44.817Z,48.73
2018-03-03T14:27:13.396Z,46.43
2018-03-03T14:29:42.793Z,48.07
2018-03-03T14:32:12.228Z,47.20
2018-03-03T14:34:40.802Z,39.17
2018-03-03T14:37:09.378Z,44.63
2018-03-03T14:39:37.976Z,43.23
2018-03-03T14:42:06.632Z,45.20
2018-03-03T14:44:39.132Z,45.50
2018-03-03T14:47:07.724Z,45.70
2018-03-03T14:49:36.428Z,46.30
2018-03-03T14:52:05.000Z,50.63
2018-03-03T14:54:33.698Z,52.00
2018-03-03T14:57:02.193Z,53.17
2018-03-03T14:59:30.866Z,58.33
2018-03-03T15:02:00.193Z,49.07
2018-03-03T15:04:28.794Z,58.07
2018-03-03T15:06:57.399Z,55.53
2018-03-03T15:09:27.096Z,55.33
2018-03-03T15:11:55.667Z,64.13
2018-03-03T15:14:24.300Z,48.87
2018-03-03T15:16:52.942Z,51.30
2018-03-03T15:19:21.529Z,66.50
2018-03-03T15:21:50.353Z,49.50
2018-03-03T15:24:20.024Z,44.97
2018-03-03T15:26:48.710Z,46.10
2018-03-03T15:29:21.099Z,46.80
2018-03-03T15:31:56.653Z,44.77
2018-03-03T15:34:25.356Z,46.07
2018-03-03T15:36:53.988Z,48.40
2018-03-03T15:39:22.629Z,46.43
2018-03-03T15:41:53.902Z,47.23
2018-03-03T15:44:22.548Z,46.00
2018-03-03T15:46:51.138Z,46.53
2018-03-03T15:49:20.830Z,45.33
2018-03-03T15:51:51.509Z,50.93
2018-03-03T15:54:20.093Z,50.90
2018-03-03T15:56:48.731Z,55.73
2018-03-03T15:59:18.336Z,48.50
2018-03-03T16:01:46.902Z,50.53
2018-03-03T16:04:15.484Z,68.37
2018-03-03T16:06:44.052Z,53.63
2018-03-03T16:09:12.633Z,50.50
2018-03-03T16:11:42.033Z,44.87
2018-03-03T16:14:10.590Z,50.87
2018-03-03T16:16:39.189Z,49.37
2018-03-03T16:19:07.787Z,62.57
2018-03-03T16:21:36.361Z,65.17
2018-03-03T16:24:04.980Z,50.57
2018-03-03T16:26:33.599Z,48.50
2018-03-03T16:29:02.422Z,46.87
2018-03-03T16:31:30.986Z,50.03
2018-03-03T16:33:59.575Z,49.77
2018-03-03T16:36:28.192Z,51.80
2018-03-03T16:38:56.789Z,45.50
2018-03-03T16:41:25.358Z,44.80
2018-03-03T16:43:53.882Z,49.37
2018-03-03T16:46:22.867Z,50.67
2018-03-03T16:48:51.472Z,48.40
2018-03-03T16:51:20.860Z,50.60
2018-03-03T16:53:49.468Z,49.83
2018-03-03T16:56:18.770Z,51.27
2018-03-03T16:58:48.132Z,49.40
2018-03-03T17:01:16.655Z,61.83
2018-03-03T17:03:46.006Z,59.10
2018-03-03T17:06:14.674Z,52.67
2018-03-03T17:08:44.022Z,53.33
2018-03-03T17:11:12.624Z,57.67
2018-03-03T17:13:41.238Z,64.00
2018-03-03T17:16:09.872Z,57.63
2018-03-03T17:18:38.471Z,56.00
2018-03-03T17:21:07.072Z,58.23
2018-03-03T17:23:35.690Z,57.80
2018-03-03T17:26:04.314Z,57.47
2018-03-03T17:28:32.920Z,57.73
2018-03-03T17:31:01.571Z,52.33
2018-03-03T17:33:31.164Z,55.53
2018-03-03T17:35:59.780Z,55.87
2018-03-03T17:38:28.403Z,58.47
2018-03-03T17:40:57.782Z,57.70
2018-03-03T17:43:26.424Z,58.70
2018-03-03T17:45:56.061Z,57.25
2018-03-03T17:48:24.913Z,55.63
2018-03-03T17:50:53.780Z,64.43
2018-03-03T17:53:22.858Z,60.67
2018-03-03T17:55:52.530Z,61.67
2018-03-03T17:58:21.122Z,59.00
2018-03-03T18:00:49.848Z,56.33
2018-03-03T18:03:18.561Z,56.73
2018-03-03T18:05:47.197Z,58.03
2018-03-03T18:08:15.797Z,58.93
2018-03-03T18:10:44.360Z,60.57
2018-03-03T18:16:17.207Z,56.37
2018-03-03T18:18:46.054Z,59.25
2018-03-03T18:21:15.135Z,58.95
2018-03-03T18:23:44.013Z,59.00
2018-03-03T18:26:12.847Z,58.47
2018-03-03T18:28:41.740Z,58.90
2018-03-03T18:31:11.098Z,57.37
2018-03-03T18:33:39.671Z,59.40
2018-03-03T18:36:09.259Z,60.90
2018-03-03T18:38:37.862Z,58.40
2018-03-03T18:41:06.420Z,61.23
2018-03-03T18:43:35.334Z,60.08
2018-03-03T18:46:03.924Z,58.13
2018-03-03T18:48:32.449Z,57.57
2018-03-03T18:51:01.806Z,57.20
2018-03-03T18:53:30.626Z,61.65
2018-03-03T18:55:59.520Z,60.53
2018-03-03T18:58:28.272Z,61.37
2018-03-03T19:01:00.539Z,57.92
2018-03-03T19:03:30.454Z,59.47
2018-03-03T19:06:00.070Z,63.33
2018-03-03T19:08:28.902Z,65.87
2018-03-03T19:10:57.819Z,69.28
2018-03-03T19:13:27.466Z,64.75
2018-03-03T19:15:56.343Z,57.13
2018-03-03T19:18:25.187Z,68.72
2018-03-03T19:20:54.032Z,69.40
2018-03-03T19:23:22.912Z,97.60
2018-03-03T19:25:51.796Z,64.37
2018-03-03T19:28:20.655Z,69.87
2018-03-03T19:30:49.562Z,59.58
2018-03-03T19:33:19.151Z,61.45
2018-03-03T19:35:48.179Z,58.92
2018-03-03T19:38:17.018Z,58.83
2018-03-03T19:40:45.877Z,62.62
2018-03-03T19:43:14.753Z,72.20
2018-03-03T19:45:43.574Z,74.22
2018-03-03T19:48:12.451Z,85.72
2018-03-03T19:50:41.342Z,68.87
2018-03-03T19:53:10.180Z,76.35
2018-03-03T19:55:39.833Z,71.68
2018-03-03T19:58:08.691Z,67.60
2018-03-03T20:00:38.402Z,66.20
2018-03-03T20:03:07.260Z,64.07
2018-03-03T20:05:36.115Z,59.92
2018-03-03T20:08:04.951Z,63.00
2018-03-03T20:10:33.762Z,65.07
2018-03-03T20:13:02.619Z,65.37
2018-03-03T20:15:31.486Z,62.22
2018-03-03T20:18:00.274Z,57.50
2018-03-03T20:20:29.148Z,55.28
2018-03-03T20:22:58.908Z,56.42
2018-03-03T20:25:27.762Z,55.70
2018-03-03T20:27:56.643Z,54.33
2018-03-03T20:30:25.454Z,55.47
2018-03-03T20:32:54.308Z,52.67
2018-03-03T20:35:23.112Z,55.08
2018-03-03T20:37:52.124Z,54.60
2018-03-03T20:40:21.007Z,64.53
2018-03-03T20:42:49.848Z,59.95
2018-03-03T20:45:18.431Z,58.63
2018-03-03T20:47:49.089Z,56.47
2018-03-03T20:50:17.996Z,58.15
2018-03-03T20:52:46.843Z,55.58
2018-03-03T20:55:16.468Z,54.85
2018-03-03T20:57:45.509Z,55.22
2018-03-03T21:00:14.335Z,57.53
2018-03-03T21:02:44.011Z,56.47
2018-03-03T21:05:12.860Z,59.80
2018-03-03T21:07:41.765Z,57.80
2018-03-03T21:10:10.650Z,64.03
2018-03-03T21:12:40.952Z,57.72
2018-03-03T21:15:09.803Z,55.25
2018-03-03T21:17:38.695Z,58.25
2018-03-03T21:20:09.415Z,54.03
2018-03-03T21:22:38.351Z,57.58
2018-03-03T21:25:07.184Z,56.63
2018-03-03T21:27:36.729Z,57.50
2018-03-03T21:30:10.308Z,61.08
2018-03-03T21:32:39.202Z,60.55
2018-03-03T21:35:08.537Z,57.30
2018-03-03T21:37:37.638Z,59.67
2018-03-03T21:40:06.347Z,54.28
2018-03-03T21:42:34.941Z,57.77
2018-03-03T21:45:03.799Z,59.10
2018-03-03T21:47:32.678Z,56.95
2018-03-03T21:50:01.214Z,56.53
2018-03-03T21:52:30.061Z,51.78
2018-03-03T21:54:58.660Z,50.03
2018-03-03T21:57:27.222Z,51.43
2018-03-03T21:59:56.895Z,54.22
2018-03-03T22:02:25.717Z,51.53
2018-03-03T22:04:54.610Z,50.05
2018-03-03T22:07:23.203Z,51.43
2018-03-03T22:09:51.716Z,55.10
2018-03-03T22:12:20.284Z,54.33
2018-03-03T22:14:48.842Z,53.80
2018-03-03T22:17:17.580Z,54.63
2018-03-03T22:19:46.460Z,53.60
2018-03-03T22:22:15.003Z,52.73
2018-03-03T22:24:43.579Z,53.37
2018-03-03T22:27:13.235Z,52.50
2018-03-03T22:29:41.947Z,52.47
2018-03-03T22:32:10.483Z,56.33
2018-03-03T22:34:39.063Z,58.43
2018-03-03T22:37:07.653Z,59.23
2018-03-03T22:39:36.213Z,54.87
2018-03-03T22:42:04.809Z,50.70
2018-03-03T22:44:33.351Z,51.43
2018-03-03T22:47:02.006Z,52.43
2018-03-03T22:49:30.564Z,51.97
2018-03-03T22:51:59.144Z,53.03
2018-03-03T22:54:27.715Z,53.03
2018-03-03T22:56:56.225Z,52.07
2018-03-03T22:59:24.800Z,52.97
2018-03-03T23:01:53.374Z,52.60
2018-03-03T23:04:21.973Z,51.33
2018-03-03T23:06:50.519Z,50.10
2018-03-03T23:09:19.107Z,51.80
2018-03-03T23:11:47.650Z,51.50
2018-03-03T23:14:17.009Z,50.43
2018-03-03T23:16:45.560Z,53.33
2018-03-03T23:19:14.095Z,53.73
2018-03-03T23:21:42.673Z,59.97
2018-03-03T23:24:11.271Z,183.83
2018-03-03T23:26:39.867Z,164.60
2018-03-03T23:29:09.223Z,126.27
2018-03-03T23:31:37.781Z,55.63
2018-03-03T23:34:06.322Z,64.47
2018-03-03T23:36:35.652Z,67.17
2018-03-03T23:39:03.402Z,55.70
2018-03-03T23:41:32.811Z,54.53
2018-03-03T23:44:01.308Z,52.97
2018-03-03T23:46:29.938Z,52.03
2018-03-03T23:48:58.511Z,70.67
2018-03-03T23:51:27.008Z,73.87
2018-03-03T23:53:55.668Z,81.83
2018-03-03T23:56:24.192Z,62.03
2018-03-03T23:58:52.807Z,55.77
